Pampa, TX

12:02 PM CST on February 24, 2017 (GMT -0600)
Perry Lefors

Weather History for KPPA - July, 2013

Change the Weather History Date:

Wednesday, July 24, 2013

  Actual Average Record
Temperature  
Mean Temperature 78 °F -  
Max Temperature 90 °F 91 °F 101 °F (2016)
Min Temperature 66 °F 65 °F 55 °F (1968)
Cooling Degree Days 13    
Growing Degree Days 28 (Base 50)    
Moisture  
Dew Point 62 °F    
Average Humidity 60    
Maximum Humidity 88    
Minimum Humidity 38    
Precipitation  
Precipitation 0.00 in - - ()
Sea Level Pressure  
Sea Level Pressure 30.07 in    
Wind  
Wind Speed 11 mph (East)    
Max Wind Speed 22 mph    
Max Gust Speed 28 mph    
Visibility 10 miles    
Events      
Averages and records for this station are not official NWS values.
T = Trace of Precipitation, MM = Missing Value Source: NWS Daily Summary

Daily Weather History Graph

Daily Weather History Graph

Search for Another Location

Airport or City:

Trip Planner

Search our weather history database for the weather conditions in past years. The results will help you decide how hot, cold, wet, or windy it might be!

Date:

Astronomy

Jul. 24, 2013 Rise Set
Actual Time 6:46 AM CDT 8:54 PM CDT
Civil Twilight 6:17 AM CDT 9:22 PM CDT
Nautical Twilight 5:42 AM CDT 9:57 PM CDT
Astronomical Twilight 5:04 AM CDT 10:35 PM CDT
Moon 10:09 PM CDT 9:01 AM CDT
Length of Visible Light 15h 05m
Length of Day
14h 07m
Waning Gibbous, 94% of the Moon is Illuminated
Jul 24
Waning Gibbous
Jul 29
Last Quarter
Aug 6
New
Aug 14
First Quarter
Aug 20
Full

Hourly Weather History & Observations

Time (CDT) Temp. Heat Index Dew Point Humidity Pressure Visibility Wind Dir Wind Speed Gust Speed Precip Events Conditions
12:15 AM 77.0 °F - 62.2 °F 60% 29.97 in 10.0 mi SSW 9.2 mph - N/A   Clear
12:35 AM 75.9 °F - 62.2 °F 62% 29.97 in 10.0 mi SSW 8.1 mph - N/A   Clear
12:55 AM 75.4 °F - 61.9 °F 63% 29.98 in 10.0 mi SSW 8.1 mph - N/A   Clear
1:15 AM 76.8 °F - 61.2 °F 58% 29.99 in 10.0 mi SW 9.2 mph - N/A   Clear
1:35 AM 75.0 °F - 61.7 °F 63% 30.00 in 10.0 mi NW 5.8 mph - N/A   Clear
1:55 AM 74.8 °F - 61.7 °F 64% 30.01 in 10.0 mi North 10.4 mph - N/A   Clear
2:15 AM 75.2 °F - 61.2 °F 62% 30.01 in 10.0 mi North 5.8 mph - N/A   Clear
2:35 AM 75.4 °F - 60.1 °F 59% 30.01 in 10.0 mi North 8.1 mph - N/A   Clear
2:55 AM 76.5 °F - 58.8 °F 54% 30.01 in 10.0 mi North 10.4 mph - N/A   Clear
3:15 AM 75.4 °F - 59.0 °F 57% 30.01 in 10.0 mi North 6.9 mph - N/A   Clear
3:35 AM 72.0 °F - 59.9 °F 66% 30.00 in 10.0 mi NW 4.6 mph - N/A   Clear
3:55 AM 72.3 °F - 60.1 °F 65% 30.00 in 10.0 mi NNW 5.8 mph - N/A   Clear
4:15 AM 70.7 °F - 61.0 °F 71% 30.00 in 10.0 mi NNW 5.8 mph - N/A   Clear
4:35 AM 70.3 °F - 61.3 °F 73% 30.01 in 10.0 mi North 6.9 mph - N/A   Clear
4:55 AM 70.0 °F - 61.2 °F 73% 30.00 in 10.0 mi North 3.5 mph - N/A   Clear
5:15 AM 68.7 °F - 61.0 °F 76% 30.01 in 10.0 mi North 6.9 mph - N/A   Clear
5:35 AM 68.2 °F - 61.7 °F 80% 30.02 in 10.0 mi North 9.2 mph - N/A   Clear
5:55 AM 68.0 °F - 63.5 °F 85% 30.03 in 10.0 mi NNE 12.7 mph - N/A   Clear
6:15 AM 67.6 °F - 64.0 °F 88% 30.04 in 10.0 mi NE 16.1 mph 21.9 mph N/A   Scattered Clouds
6:35 AM 67.3 °F - 63.5 °F 88% 30.05 in 10.0 mi ENE 16.1 mph - N/A   Scattered Clouds
6:55 AM 66.6 °F - 63.0 °F 88% 30.06 in 10.0 mi NE 15.0 mph - N/A   Clear
7:15 AM 66.4 °F - 62.6 °F 88% 30.06 in 10.0 mi NE 13.8 mph - N/A   Clear
7:35 AM 67.1 °F - 62.4 °F 85% 30.07 in 10.0 mi ENE 16.1 mph - N/A   Clear
7:55 AM 67.8 °F - 61.3 °F 80% 30.08 in 10.0 mi ENE 21.9 mph 25.3 mph N/A   Clear
8:15 AM 68.9 °F - 60.8 °F 75% 30.08 in 10.0 mi East 20.7 mph 27.6 mph N/A   Clear
8:35 AM 69.8 °F - 60.8 °F 73% 30.10 in 10.0 mi East 21.9 mph - N/A   Clear
8:55 AM 70.3 °F - 61.2 °F 73% 30.10 in 10.0 mi East 18.4 mph - N/A   Clear
9:15 AM 70.9 °F - 61.9 °F 73% 30.10 in 10.0 mi East 18.4 mph - N/A   Clear
9:35 AM 70.9 °F - 63.1 °F 76% 30.11 in 10.0 mi East 19.6 mph - N/A   Scattered Clouds
9:55 AM 71.6 °F - 64.6 °F 78% 30.11 in 10.0 mi East 18.4 mph 25.3 mph N/A   Mostly Cloudy
10:15 AM 71.1 °F - 64.9 °F 81% 30.12 in 10.0 mi East 18.4 mph - N/A   Overcast
10:35 AM 71.6 °F - 64.9 °F 79% 30.13 in 10.0 mi ESE 15.0 mph - N/A   Overcast
10:55 AM 72.7 °F - 64.8 °F 76% 30.13 in 10.0 mi East 13.8 mph - N/A   Overcast
11:15 AM 76.1 °F - 64.9 °F 68% 30.13 in 10.0 mi ESE 13.8 mph 19.6 mph N/A   Overcast
11:35 AM 77.4 °F - 65.5 °F 67% 30.13 in 10.0 mi SE 12.7 mph 20.7 mph N/A   Mostly Cloudy
11:55 AM 78.6 °F - 66.0 °F 65% 30.13 in 10.0 mi ESE 10.4 mph 17.3 mph N/A   Mostly Cloudy
12:15 PM 80.8 °F 82.9 °F 66.2 °F 61% 30.13 in 10.0 mi ESE 11.5 mph 16.1 mph N/A   Scattered Clouds
12:35 PM 81.9 °F 83.9 °F 65.8 °F 58% 30.13 in 10.0 mi SE 10.4 mph - N/A   Clear
12:55 PM 82.2 °F 84.2 °F 65.5 °F 57% 30.13 in 10.0 mi SSE 11.5 mph - N/A   Clear
1:15 PM 83.7 °F 85.3 °F 65.1 °F 53% 30.13 in 10.0 mi SE 5.8 mph - N/A   Clear
1:35 PM 84.4 °F 86.1 °F 64.9 °F 52% 30.12 in 10.0 mi SE 8.1 mph - N/A   Clear
1:55 PM 86.0 °F 87.3 °F 64.2 °F 48% 30.12 in 10.0 mi SE 10.4 mph - N/A   Clear
2:15 PM 86.5 °F 87.8 °F 64.0 °F 47% 30.11 in 10.0 mi ESE 8.1 mph - N/A   Clear
2:35 PM 87.4 °F 88.8 °F 64.0 °F 46% 30.10 in 10.0 mi East 10.4 mph - N/A   Clear
2:55 PM 88.5 °F 89.5 °F 63.3 °F 43% 30.10 in 10.0 mi ESE 11.5 mph 17.3 mph N/A   Clear
3:15 PM 89.4 °F 90.2 °F 63.0 °F 41% 30.09 in 10.0 mi ESE 12.7 mph 18.4 mph N/A   Clear
3:35 PM 89.1 °F 90.0 °F 63.3 °F 42% 30.08 in 10.0 mi ESE 13.8 mph 17.3 mph N/A   Clear
3:55 PM 90.3 °F 91.2 °F 62.8 °F 40% 30.07 in 10.0 mi East 16.1 mph 20.7 mph N/A   Clear
4:15 PM 89.6 °F 90.4 °F 62.8 °F 41% 30.07 in 10.0 mi East 16.1 mph 21.9 mph N/A   Clear
4:35 PM 90.1 °F 90.2 °F 61.7 °F 38% 30.07 in 10.0 mi East 12.7 mph 20.7 mph N/A   Clear
4:55 PM 89.2 °F 89.9 °F 62.4 °F 41% 30.06 in 10.0 mi ESE 16.1 mph - N/A   Clear
5:15 PM 89.6 °F 90.4 °F 62.8 °F 41% 30.06 in 10.0 mi East 15.0 mph 20.7 mph N/A   Clear
5:35 PM 89.2 °F 89.6 °F 61.7 °F 40% 30.07 in 10.0 mi SE 13.8 mph 24.2 mph N/A   Clear
5:55 PM 89.4 °F 89.8 °F 61.9 °F 40% 30.07 in 10.0 mi ESE 16.1 mph 20.7 mph N/A   Clear
6:15 PM 88.7 °F 89.1 °F 62.2 °F 41% 30.06 in 10.0 mi ESE 15.0 mph 20.7 mph N/A   Clear
6:35 PM 88.0 °F 88.4 °F 62.1 °F 42% 30.06 in 10.0 mi ESE 16.1 mph 21.9 mph N/A   Clear
6:55 PM 87.8 °F 87.9 °F 61.5 °F 41% 30.05 in 10.0 mi ESE 15.0 mph 23.0 mph N/A   Clear
7:15 PM 86.9 °F 87.2 °F 61.7 °F 43% 30.06 in 10.0 mi ESE 16.1 mph - N/A   Clear
7:35 PM 86.0 °F 86.1 °F 61.0 °F 43% 30.05 in 10.0 mi ESE 18.4 mph - N/A   Clear
7:55 PM 85.1 °F 85.4 °F 61.3 °F 45% 30.07 in 10.0 mi ESE 13.8 mph - N/A   Clear
8:15 PM 83.8 °F 84.1 °F 61.2 °F 46% 30.08 in 10.0 mi ESE 12.7 mph - N/A   Clear
8:35 PM 82.6 °F 83.2 °F 61.7 °F 49% 30.08 in 10.0 mi ESE 13.8 mph - N/A   Clear
8:55 PM 81.3 °F 82.2 °F 61.7 °F 51% 30.10 in 10.0 mi ESE 9.2 mph - N/A   Clear
9:15 PM 79.9 °F - 61.7 °F 54% 30.10 in 10.0 mi ESE 8.1 mph - N/A   Clear
9:35 PM 79.2 °F - 62.1 °F 56% 30.11 in 10.0 mi SE 5.8 mph - N/A   Clear
9:55 PM 78.3 °F - 62.4 °F 58% 30.12 in 10.0 mi SE 5.8 mph - N/A   Clear
10:15 PM 76.8 °F - 62.6 °F 61% 30.13 in 10.0 mi SE 3.5 mph - N/A   Clear
10:35 PM 77.0 °F - 62.6 °F 61% 30.13 in 10.0 mi SE 3.5 mph - N/A   Clear
10:55 PM 77.4 °F - 63.0 °F 61% 30.14 in 10.0 mi West 4.6 mph - N/A   Mostly Cloudy
11:15 PM 78.3 °F - 57.0 °F 48% 30.16 in 10.0 mi WSW 10.4 mph 16.1 mph N/A   Mostly Cloudy
11:35 PM 76.8 °F - 57.7 °F 52% 30.17 in 10.0 mi West 16.1 mph - N/A   Overcast
11:55 PM 75.2 °F - 55.6 °F 50% 30.18 in 10.0 mi West 15.0 mph 19.6 mph N/A   Overcast